sensor_id;sensor_type;location;lat;lon;timestamp;temperature;humidity
21115;DHT22;10715;48.546;9.896;2023-04-15T00:01:40;1.80;99.90
21115;DHT22;10715;48.546;9.896;2023-04-15T00:04:07;1.80;99.90
21115;DHT22;10715;48.546;9.896;2023-04-15T00:06:33;1.80;99.90
21115;DHT22;10715;48.546;9.896;2023-04-15T00:09:02;1.70;99.90
21115;DHT22;10715;48.546;9.896;2023-04-15T00:11:28;1.70;99.90
21115;DHT22;10715;48.546;9.896;2023-04-15T00:13:53;1.70;99.90
21115;DHT22;10715;48.546;9.896;2023-04-15T00:16:19;1.70;99.90
21115;DHT22;10715;48.546;9.896;2023-04-15T00:18:45;1.70;99.90
21115;DHT22;10715;48.546;9.896;2023-04-15T00:21:11;1.60;99.90
21115;DHT22;10715;48.546;9.896;2023-04-15T00:23:36;1.60;99.90
21115;DHT22;10715;48.546;9.896;2023-04-15T00:26:02;1.60;99.90
21115;DHT22;10715;48.546;9.896;2023-04-15T00:28:28;1.60;99.90
21115;DHT22;10715;48.546;9.896;2023-04-15T00:30:54;1.60;99.90
21115;DHT22;10715;48.546;9.896;2023-04-15T00:33:19;1.60;99.90
21115;DHT22;10715;48.546;9.896;2023-04-15T00:35:45;1.60;99.90
21115;DHT22;10715;48.546;9.896;2023-04-15T00:38:11;1.60;99.90
21115;DHT22;10715;48.546;9.896;2023-04-15T00:40:37;1.60;99.90
21115;DHT22;10715;48.546;9.896;2023-04-15T00:43:03;1.60;99.90
21115;DHT22;10715;48.546;9.896;2023-04-15T00:45:29;1.60;99.90
21115;DHT22;10715;48.546;9.896;2023-04-15T00:47:56;1.60;99.90
21115;DHT22;10715;48.546;9.896;2023-04-15T00:50:22;1.50;99.90
21115;DHT22;10715;48.546;9.896;2023-04-15T00:52:50;1.50;99.90
21115;DHT22;10715;48.546;9.896;2023-04-15T00:55:16;1.50;99.90
21115;DHT22;10715;48.546;9.896;2023-04-15T00:57:42;1.50;99.90
21115;DHT22;10715;48.546;9.896;2023-04-15T01:00:09;1.50;99.90
21115;DHT22;10715;48.546;9.896;2023-04-15T01:02:36;1.50;99.90
21115;DHT22;10715;48.546;9.896;2023-04-15T01:05:04;1.50;99.90
21115;DHT22;10715;48.546;9.896;2023-04-15T01:07:30;1.50;99.90
21115;DHT22;10715;48.546;9.896;2023-04-15T01:09:56;1.50;99.90
21115;DHT22;10715;48.546;9.896;2023-04-15T01:12:31;1.50;99.90
21115;DHT22;10715;48.546;9.896;2023-04-15T01:14:58;1.60;99.90
21115;DHT22;10715;48.546;9.896;2023-04-15T01:17:24;1.60;99.90
21115;DHT22;10715;48.546;9.896;2023-04-15T01:19:50;1.50;99.90
21115;DHT22;10715;48.546;9.896;2023-04-15T01:22:16;1.50;99.90
21115;DHT22;10715;48.546;9.896;2023-04-15T01:24:57;1.50;99.90
21115;DHT22;10715;48.546;9.896;2023-04-15T01:27:32;1.50;99.90
21115;DHT22;10715;48.546;9.896;2023-04-15T01:30:02;1.40;99.90
21115;DHT22;10715;48.546;9.896;2023-04-15T01:32:29;1.40;99.90
21115;DHT22;10715;48.546;9.896;2023-04-15T01:34:55;1.40;99.90
21115;DHT22;10715;48.546;9.896;2023-04-15T01:37:24;1.40;99.90
21115;DHT22;10715;48.546;9.896;2023-04-15T01:39:50;1.40;99.90
21115;DHT22;10715;48.546;9.896;2023-04-15T01:42:16;1.40;99.90
21115;DHT22;10715;48.546;9.896;2023-04-15T01:44:42;1.30;99.90
21115;DHT22;10715;48.546;9.896;2023-04-15T01:47:07;1.30;99.90
21115;DHT22;10715;48.546;9.896;2023-04-15T01:49:33;1.30;99.90
21115;DHT22;10715;48.546;9.896;2023-04-15T01:51:59;1.30;99.90
21115;DHT22;10715;48.546;9.896;2023-04-15T01:54:25;1.30;99.90
21115;DHT22;10715;48.546;9.896;2023-04-15T01:56:52;1.20;99.90
21115;DHT22;10715;48.546;9.896;2023-04-15T01:59:17;1.20;99.90
21115;DHT22;10715;48.546;9.896;2023-04-15T02:01:43;1.20;99.90
21115;DHT22;10715;48.546;9.896;2023-04-15T02:04:12;1.10;99.90
21115;DHT22;10715;48.546;9.896;2023-04-15T02:06:43;1.10;99.90
21115;DHT22;10715;48.546;9.896;2023-04-15T02:09:09;1.10;99.90
21115;DHT22;10715;48.546;9.896;2023-04-15T02:11:35;1.00;99.90
21115;DHT22;10715;48.546;9.896;2023-04-15T02:14:04;1.00;99.90
21115;DHT22;10715;48.546;9.896;2023-04-15T02:16:31;1.00;99.90
21115;DHT22;10715;48.546;9.896;2023-04-15T02:18:59;0.90;99.90
21115;DHT22;10715;48.546;9.896;2023-04-15T02:21:27;0.90;99.90
21115;DHT22;10715;48.546;9.896;2023-04-15T02:23:53;0.90;99.90
21115;DHT22;10715;48.546;9.896;2023-04-15T02:26:19;0.80;99.90
21115;DHT22;10715;48.546;9.896;2023-04-15T02:28:46;0.80;99.90
21115;DHT22;10715;48.546;9.896;2023-04-15T02:31:11;0.80;99.90
21115;DHT22;10715;48.546;9.896;2023-04-15T02:33:39;0.80;99.90
21115;DHT22;10715;48.546;9.896;2023-04-15T02:36:05;0.80;99.90
21115;DHT22;10715;48.546;9.896;2023-04-15T02:38:32;0.70;99.90
21115;DHT22;10715;48.546;9.896;2023-04-15T02:40:58;0.70;99.90
21115;DHT22;10715;48.546;9.896;2023-04-15T02:43:27;0.70;99.90
21115;DHT22;10715;48.546;9.896;2023-04-15T02:45:52;0.70;99.90
21115;DHT22;10715;48.546;9.896;2023-04-15T02:48:18;0.70;99.90
21115;DHT22;10715;48.546;9.896;2023-04-15T02:50:45;0.60;99.90
21115;DHT22;10715;48.546;9.896;2023-04-15T02:53:12;0.60;99.90
21115;DHT22;10715;48.546;9.896;2023-04-15T02:55:39;0.60;99.90
21115;DHT22;10715;48.546;9.896;2023-04-15T02:58:05;0.60;99.90
21115;DHT22;10715;48.546;9.896;2023-04-15T03:00:31;0.60;99.90
21115;DHT22;10715;48.546;9.896;2023-04-15T03:03:05;0.50;99.90
21115;DHT22;10715;48.546;9.896;2023-04-15T03:05:31;0.50;99.90
21115;DHT22;10715;48.546;9.896;2023-04-15T03:07:57;0.50;99.90
21115;DHT22;10715;48.546;9.896;2023-04-15T03:10:23;0.50;99.90
21115;DHT22;10715;48.546;9.896;2023-04-15T03:12:49;0.50;99.90
21115;DHT22;10715;48.546;9.896;2023-04-15T03:15:14;0.50;99.90
21115;DHT22;10715;48.546;9.896;2023-04-15T03:17:41;0.50;99.90
21115;DHT22;10715;48.546;9.896;2023-04-15T03:20:07;0.50;99.90
21115;DHT22;10715;48.546;9.896;2023-04-15T03:22:33;0.40;99.90
21115;DHT22;10715;48.546;9.896;2023-04-15T03:24:58;0.40;99.90
21115;DHT22;10715;48.546;9.896;2023-04-15T03:27:25;0.40;99.90
21115;DHT22;10715;48.546;9.896;2023-04-15T03:29:50;0.40;99.90
21115;DHT22;10715;48.546;9.896;2023-04-15T03:32:16;0.40;99.90
21115;DHT22;10715;48.546;9.896;2023-04-15T03:34:42;0.40;99.90
21115;DHT22;10715;48.546;9.896;2023-04-15T03:37:11;0.40;99.90
21115;DHT22;10715;48.546;9.896;2023-04-15T03:39:36;0.40;99.90
21115;DHT22;10715;48.546;9.896;2023-04-15T03:42:02;0.40;99.90
21115;DHT22;10715;48.546;9.896;2023-04-15T03:44:28;0.40;99.90
21115;DHT22;10715;48.546;9.896;2023-04-15T03:46:53;0.30;99.90
21115;DHT22;10715;48.546;9.896;2023-04-15T03:49:19;0.40;99.90
21115;DHT22;10715;48.546;9.896;2023-04-15T03:51:47;0.40;99.90
21115;DHT22;10715;48.546;9.896;2023-04-15T03:54:13;0.50;99.90
21115;DHT22;10715;48.546;9.896;2023-04-15T03:56:39;0.50;99.90
21115;DHT22;10715;48.546;9.896;2023-04-15T03:59:05;0.50;99.90
21115;DHT22;10715;48.546;9.896;2023-04-15T04:01:31;0.40;99.90
21115;DHT22;10715;48.546;9.896;2023-04-15T04:03:57;0.40;99.90
21115;DHT22;10715;48.546;9.896;2023-04-15T04:06:23;0.40;99.90
21115;DHT22;10715;48.546;9.896;2023-04-15T04:08:48;0.40;99.90
21115;DHT22;10715;48.546;9.896;2023-04-15T04:11:17;0.40;99.90
21115;DHT22;10715;48.546;9.896;2023-04-15T04:13:43;0.40;99.90
21115;DHT22;10715;48.546;9.896;2023-04-15T04:16:08;0.40;99.90
21115;DHT22;10715;48.546;9.896;2023-04-15T04:18:34;0.40;99.90
21115;DHT22;10715;48.546;9.896;2023-04-15T04:21:00;0.40;99.90
21115;DHT22;10715;48.546;9.896;2023-04-15T04:23:26;0.40;99.90
21115;DHT22;10715;48.546;9.896;2023-04-15T04:25:51;0.40;99.90
21115;DHT22;10715;48.546;9.896;2023-04-15T04:28:17;0.40;99.90
21115;DHT22;10715;48.546;9.896;2023-04-15T04:30:43;0.40;99.90
21115;DHT22;10715;48.546;9.896;2023-04-15T04:33:11;0.30;99.90
21115;DHT22;10715;48.546;9.896;2023-04-15T04:35:36;0.30;99.90
21115;DHT22;10715;48.546;9.896;2023-04-15T04:38:03;0.30;99.90
21115;DHT22;10715;48.546;9.896;2023-04-15T04:40:28;0.30;99.90
21115;DHT22;10715;48.546;9.896;2023-04-15T04:42:54;0.20;99.90
21115;DHT22;10715;48.546;9.896;2023-04-15T04:45:20;0.20;99.90
21115;DHT22;10715;48.546;9.896;2023-04-15T04:47:46;0.10;99.90
21115;DHT22;10715;48.546;9.896;2023-04-15T04:50:12;0.10;99.90
21115;DHT22;10715;48.546;9.896;2023-04-15T04:52:38;0.10;99.90
21115;DHT22;10715;48.546;9.896;2023-04-15T04:55:04;0.10;99.90
21115;DHT22;10715;48.546;9.896;2023-04-15T04:57:30;0.10;99.90
21115;DHT22;10715;48.546;9.896;2023-04-15T04:59:56;0.10;99.90
21115;DHT22;10715;48.546;9.896;2023-04-15T05:02:22;0.10;99.90
21115;DHT22;10715;48.546;9.896;2023-04-15T05:04:48;0.10;99.90
21115;DHT22;10715;48.546;9.896;2023-04-15T05:07:15;0.10;99.90
21115;DHT22;10715;48.546;9.896;2023-04-15T05:09:41;0.10;99.90
21115;DHT22;10715;48.546;9.896;2023-04-15T05:12:08;0.10;99.90
21115;DHT22;10715;48.546;9.896;2023-04-15T05:14:39;0.10;99.90
21115;DHT22;10715;48.546;9.896;2023-04-15T05:17:05;0.00;99.90
21115;DHT22;10715;48.546;9.896;2023-04-15T05:19:31;0.00;99.90
21115;DHT22;10715;48.546;9.896;2023-04-15T05:21:57;0.00;99.90
21115;DHT22;10715;48.546;9.896;2023-04-15T05:24:23;0.00;99.90
21115;DHT22;10715;48.546;9.896;2023-04-15T05:26:48;0.00;99.90
21115;DHT22;10715;48.546;9.896;2023-04-15T05:29:14;0.00;99.90
21115;DHT22;10715;48.546;9.896;2023-04-15T05:31:40;0.10;99.90
21115;DHT22;10715;48.546;9.896;2023-04-15T05:34:06;0.10;99.90
21115;DHT22;10715;48.546;9.896;2023-04-15T05:36:32;0.10;99.90
21115;DHT22;10715;48.546;9.896;2023-04-15T05:38:57;0.10;99.90
21115;DHT22;10715;48.546;9.896;2023-04-15T05:41:23;0.10;99.90
21115;DHT22;10715;48.546;9.896;2023-04-15T05:43:49;0.20;99.90
21115;DHT22;10715;48.546;9.896;2023-04-15T05:46:14;0.20;99.90
21115;DHT22;10715;48.546;9.896;2023-04-15T05:48:40;0.20;99.90
21115;DHT22;10715;48.546;9.896;2023-04-15T05:51:06;0.30;99.90
21115;DHT22;10715;48.546;9.896;2023-04-15T05:53:32;0.40;99.90
21115;DHT22;10715;48.546;9.896;2023-04-15T05:55:57;0.40;99.90
21115;DHT22;10715;48.546;9.896;2023-04-15T05:58:23;0.50;99.90
21115;DHT22;10715;48.546;9.896;2023-04-15T06:00:49;0.70;99.90
21115;DHT22;10715;48.546;9.896;2023-04-15T06:03:15;0.70;99.90
21115;DHT22;10715;48.546;9.896;2023-04-15T06:05:41;0.80;99.90
21115;DHT22;10715;48.546;9.896;2023-04-15T06:08:07;0.80;99.90
21115;DHT22;10715;48.546;9.896;2023-04-15T06:10:34;0.80;99.90
21115;DHT22;10715;48.546;9.896;2023-04-15T06:13:02;0.80;99.90
21115;DHT22;10715;48.546;9.896;2023-04-15T06:15:28;0.80;99.90
21115;DHT22;10715;48.546;9.896;2023-04-15T06:17:54;0.90;99.90
21115;DHT22;10715;48.546;9.896;2023-04-15T06:20:20;0.90;99.90
21115;DHT22;10715;48.546;9.896;2023-04-15T06:22:47;1.00;99.90
21115;DHT22;10715;48.546;9.896;2023-04-15T06:25:13;1.00;99.90
21115;DHT22;10715;48.546;9.896;2023-04-15T06:27:39;1.00;99.90
21115;DHT22;10715;48.546;9.896;2023-04-15T06:30:05;1.00;99.90
21115;DHT22;10715;48.546;9.896;2023-04-15T06:32:32;1.10;99.90
21115;DHT22;10715;48.546;9.896;2023-04-15T06:34:58;1.10;99.90
21115;DHT22;10715;48.546;9.896;2023-04-15T06:37:23;1.10;99.90
21115;DHT22;10715;48.546;9.896;2023-04-15T06:39:49;1.20;99.90
21115;DHT22;10715;48.546;9.896;2023-04-15T06:42:15;1.20;99.90
21115;DHT22;10715;48.546;9.896;2023-04-15T06:44:41;1.30;99.90
21115;DHT22;10715;48.546;9.896;2023-04-15T06:47:08;1.30;99.90
21115;DHT22;10715;48.546;9.896;2023-04-15T06:49:34;1.40;99.90
21115;DHT22;10715;48.546;9.896;2023-04-15T06:52:00;1.40;99.90
21115;DHT22;10715;48.546;9.896;2023-04-15T06:54:26;1.50;99.90
21115;DHT22;10715;48.546;9.896;2023-04-15T06:56:52;1.50;99.90
21115;DHT22;10715;48.546;9.896;2023-04-15T06:59:18;1.60;99.90
21115;DHT22;10715;48.546;9.896;2023-04-15T07:01:46;1.70;99.90
21115;DHT22;10715;48.546;9.896;2023-04-15T07:04:12;1.70;99.90
21115;DHT22;10715;48.546;9.896;2023-04-15T07:06:37;1.80;99.90
21115;DHT22;10715;48.546;9.896;2023-04-15T07:09:04;1.90;99.90
21115;DHT22;10715;48.546;9.896;2023-04-15T07:11:29;2.00;99.90
21115;DHT22;10715;48.546;9.896;2023-04-15T07:13:58;2.10;99.90
21115;DHT22;10715;48.546;9.896;2023-04-15T07:16:24;2.20;99.90
21115;DHT22;10715;48.546;9.896;2023-04-15T07:18:49;2.40;99.90
21115;DHT22;10715;48.546;9.896;2023-04-15T07:21:15;2.50;99.90
21115;DHT22;10715;48.546;9.896;2023-04-15T07:23:41;2.60;99.90
21115;DHT22;10715;48.546;9.896;2023-04-15T07:26:08;2.80;99.90
21115;DHT22;10715;48.546;9.896;2023-04-15T07:28:34;2.90;99.90
21115;DHT22;10715;48.546;9.896;2023-04-15T07:30:59;3.00;99.90
21115;DHT22;10715;48.546;9.896;2023-04-15T07:33:25;3.10;99.90
21115;DHT22;10715;48.546;9.896;2023-04-15T07:35:51;3.30;99.90
21115;DHT22;10715;48.546;9.896;2023-04-15T07:38:17;3.40;99.90
21115;DHT22;10715;48.546;9.896;2023-04-15T07:40:43;3.60;99.90
21115;DHT22;10715;48.546;9.896;2023-04-15T07:43:09;3.70;99.90
21115;DHT22;10715;48.546;9.896;2023-04-15T07:45:35;3.80;99.90
21115;DHT22;10715;48.546;9.896;2023-04-15T07:48:04;3.90;99.90
21115;DHT22;10715;48.546;9.896;2023-04-15T07:50:31;4.10;99.90
21115;DHT22;10715;48.546;9.896;2023-04-15T07:52:57;4.20;99.90
21115;DHT22;10715;48.546;9.896;2023-04-15T07:55:22;4.30;99.90
21115;DHT22;10715;48.546;9.896;2023-04-15T07:57:49;4.40;99.90
21115;DHT22;10715;48.546;9.896;2023-04-15T08:00:15;4.60;99.90
21115;DHT22;10715;48.546;9.896;2023-04-15T08:02:42;4.80;99.90
21115;DHT22;10715;48.546;9.896;2023-04-15T08:05:08;4.90;99.90
21115;DHT22;10715;48.546;9.896;2023-04-15T08:07:36;5.10;99.90
21115;DHT22;10715;48.546;9.896;2023-04-15T08:10:03;5.20;99.90
21115;DHT22;10715;48.546;9.896;2023-04-15T08:12:30;5.40;99.90
21115;DHT22;10715;48.546;9.896;2023-04-15T08:14:56;5.50;99.90
21115;DHT22;10715;48.546;9.896;2023-04-15T08:17:23;5.60;99.90
21115;DHT22;10715;48.546;9.896;2023-04-15T08:19:48;5.70;99.90
21115;DHT22;10715;48.546;9.896;2023-04-15T08:22:14;5.80;99.90
21115;DHT22;10715;48.546;9.896;2023-04-15T08:24:40;6.00;99.90
21115;DHT22;10715;48.546;9.896;2023-04-15T08:27:06;6.10;99.90
21115;DHT22;10715;48.546;9.896;2023-04-15T08:29:32;6.20;99.90
21115;DHT22;10715;48.546;9.896;2023-04-15T08:31:59;6.30;99.90
21115;DHT22;10715;48.546;9.896;2023-04-15T08:34:26;6.50;99.90
21115;DHT22;10715;48.546;9.896;2023-04-15T08:36:52;6.60;99.90
21115;DHT22;10715;48.546;9.896;2023-04-15T08:39:17;6.70;99.90
21115;DHT22;10715;48.546;9.896;2023-04-15T08:41:51;6.80;99.90
21115;DHT22;10715;48.546;9.896;2023-04-15T08:44:22;6.90;99.90
21115;DHT22;10715;48.546;9.896;2023-04-15T08:46:50;7.10;99.90
21115;DHT22;10715;48.546;9.896;2023-04-15T08:49:18;7.20;99.90
21115;DHT22;10715;48.546;9.896;2023-04-15T08:51:46;7.20;99.90
21115;DHT22;10715;48.546;9.896;2023-04-15T08:54:12;7.30;99.90
21115;DHT22;10715;48.546;9.896;2023-04-15T08:56:38;7.40;99.90
21115;DHT22;10715;48.546;9.896;2023-04-15T08:59:04;7.50;99.90
21115;DHT22;10715;48.546;9.896;2023-04-15T09:01:31;7.60;99.90
21115;DHT22;10715;48.546;9.896;2023-04-15T09:03:58;7.70;99.90
21115;DHT22;10715;48.546;9.896;2023-04-15T09:06:24;7.90;99.90
21115;DHT22;10715;48.546;9.896;2023-04-15T09:08:50;8.00;99.90
21115;DHT22;10715;48.546;9.896;2023-04-15T09:11:17;8.10;99.90
21115;DHT22;10715;48.546;9.896;2023-04-15T09:13:44;8.20;99.90
21115;DHT22;10715;48.546;9.896;2023-04-15T09:16:10;8.20;99.90
21115;DHT22;10715;48.546;9.896;2023-04-15T09:18:38;8.30;99.90
21115;DHT22;10715;48.546;9.896;2023-04-15T09:23:36;8.40;99.90
21115;DHT22;10715;48.546;9.896;2023-04-15T09:26:02;8.50;99.90
21115;DHT22;10715;48.546;9.896;2023-04-15T09:28:28;8.60;99.90
21115;DHT22;10715;48.546;9.896;2023-04-15T09:30:58;8.60;99.90
21115;DHT22;10715;48.546;9.896;2023-04-15T09:33:25;8.80;99.90
21115;DHT22;10715;48.546;9.896;2023-04-15T09:36:02;8.80;99.90
21115;DHT22;10715;48.546;9.896;2023-04-15T09:38:30;9.00;99.90
21115;DHT22;10715;48.546;9.896;2023-04-15T09:40:57;9.00;99.90
21115;DHT22;10715;48.546;9.896;2023-04-15T09:43:35;9.20;99.90
21115;DHT22;10715;48.546;9.896;2023-04-15T09:46:04;9.30;99.90
21115;DHT22;10715;48.546;9.896;2023-04-15T09:48:30;9.30;99.90
21115;DHT22;10715;48.546;9.896;2023-04-15T09:51:00;9.40;99.90
21115;DHT22;10715;48.546;9.896;2023-04-15T09:53:27;9.40;99.90
21115;DHT22;10715;48.546;9.896;2023-04-15T09:55:55;9.50;99.90
21115;DHT22;10715;48.546;9.896;2023-04-15T09:58:26;9.50;99.90
21115;DHT22;10715;48.546;9.896;2023-04-15T10:00:53;9.50;99.90
21115;DHT22;10715;48.546;9.896;2023-04-15T10:03:21;9.50;99.90
21115;DHT22;10715;48.546;9.896;2023-04-15T10:05:49;9.60;99.90
21115;DHT22;10715;48.546;9.896;2023-04-15T10:08:19;9.60;99.90
21115;DHT22;10715;48.546;9.896;2023-04-15T10:10:46;9.60;99.90
21115;DHT22;10715;48.546;9.896;2023-04-15T10:13:39;9.60;99.90
21115;DHT22;10715;48.546;9.896;2023-04-15T10:16:14;9.60;99.90
21115;DHT22;10715;48.546;9.896;2023-04-15T10:18:46;9.70;99.90
21115;DHT22;10715;48.546;9.896;2023-04-15T10:21:13;9.70;99.90
21115;DHT22;10715;48.546;9.896;2023-04-15T10:23:43;9.70;99.90
21115;DHT22;10715;48.546;9.896;2023-04-15T10:26:10;9.70;99.90
21115;DHT22;10715;48.546;9.896;2023-04-15T10:28:37;9.70;99.90
21115;DHT22;10715;48.546;9.896;2023-04-15T10:31:04;9.70;99.90
21115;DHT22;10715;48.546;9.896;2023-04-15T10:33:30;9.70;99.90
21115;DHT22;10715;48.546;9.896;2023-04-15T10:35:56;9.80;99.90
21115;DHT22;10715;48.546;9.896;2023-04-15T10:38:42;9.80;99.90
21115;DHT22;10715;48.546;9.896;2023-04-15T10:48:52;9.90;99.90
21115;DHT22;10715;48.546;9.896;2023-04-15T10:51:29;10.00;99.90
21115;DHT22;10715;48.546;9.896;2023-04-15T10:53:57;10.00;99.90
21115;DHT22;10715;48.546;9.896;2023-04-15T10:56:24;10.00;99.90
21115;DHT22;10715;48.546;9.896;2023-04-15T10:58:49;10.10;99.90
21115;DHT22;10715;48.546;9.896;2023-04-15T11:01:18;10.10;99.90
21115;DHT22;10715;48.546;9.896;2023-04-15T11:03:43;10.10;99.90
21115;DHT22;10715;48.546;9.896;2023-04-15T11:06:10;10.20;99.90
21115;DHT22;10715;48.546;9.896;2023-04-15T11:08:56;10.20;99.90
21115;DHT22;10715;48.546;9.896;2023-04-15T11:12:16;10.30;99.90
21115;DHT22;10715;48.546;9.896;2023-04-15T11:14:41;10.30;99.90
21115;DHT22;10715;48.546;9.896;2023-04-15T11:17:07;10.40;99.90
21115;DHT22;10715;48.546;9.896;2023-04-15T11:19:37;10.40;99.90
21115;DHT22;10715;48.546;9.896;2023-04-15T11:22:10;10.50;99.90
21115;DHT22;10715;48.546;9.896;2023-04-15T11:24:45;10.50;99.90
21115;DHT22;10715;48.546;9.896;2023-04-15T11:27:20;10.40;99.90
21115;DHT22;10715;48.546;9.896;2023-04-15T11:29:46;10.40;99.90
21115;DHT22;10715;48.546;9.896;2023-04-15T11:32:11;10.40;99.90
21115;DHT22;10715;48.546;9.896;2023-04-15T11:34:37;10.30;99.90
21115;DHT22;10715;48.546;9.896;2023-04-15T11:37:06;10.30;99.90
21115;DHT22;10715;48.546;9.896;2023-04-15T11:39:32;10.30;99.90
21115;DHT22;10715;48.546;9.896;2023-04-15T11:41:58;10.30;99.90
21115;DHT22;10715;48.546;9.896;2023-04-15T11:44:23;10.30;99.90
21115;DHT22;10715;48.546;9.896;2023-04-15T11:46:49;10.30;99.90
21115;DHT22;10715;48.546;9.896;2023-04-15T11:49:28;10.20;99.90
21115;DHT22;10715;48.546;9.896;2023-04-15T11:51:55;10.10;99.90
21115;DHT22;10715;48.546;9.896;2023-04-15T11:54:21;10.00;99.90
21115;DHT22;10715;48.546;9.896;2023-04-15T11:56:50;9.90;99.90
21115;DHT22;10715;48.546;9.896;2023-04-15T11:59:17;9.90;99.90
21115;DHT22;10715;48.546;9.896;2023-04-15T12:01:42;9.90;99.90
21115;DHT22;10715;48.546;9.896;2023-04-15T12:04:16;9.80;99.90
21115;DHT22;10715;48.546;9.896;2023-04-15T12:06:44;9.80;99.90
21115;DHT22;10715;48.546;9.896;2023-04-15T12:09:13;9.80;99.90
21115;DHT22;10715;48.546;9.896;2023-04-15T12:11:48;9.70;99.90
21115;DHT22;10715;48.546;9.896;2023-04-15T12:17:12;9.60;99.90
21115;DHT22;10715;48.546;9.896;2023-04-15T12:19:40;9.60;99.90
21115;DHT22;10715;48.546;9.896;2023-04-15T12:22:14;9.60;99.90
21115;DHT22;10715;48.546;9.896;2023-04-15T12:24:42;9.60;99.90
21115;DHT22;10715;48.546;9.896;2023-04-15T12:27:14;9.60;99.90
21115;DHT22;10715;48.546;9.896;2023-04-15T12:29:41;9.60;99.90
21115;DHT22;10715;48.546;9.896;2023-04-15T12:32:16;9.70;99.90
21115;DHT22;10715;48.546;9.896;2023-04-15T12:37:14;9.70;99.90
21115;DHT22;10715;48.546;9.896;2023-04-15T12:39:42;9.70;99.90
21115;DHT22;10715;48.546;9.896;2023-04-15T12:42:09;9.80;99.90
21115;DHT22;10715;48.546;9.896;2023-04-15T12:44:36;9.80;99.90
21115;DHT22;10715;48.546;9.896;2023-04-15T12:47:02;9.80;99.90
21115;DHT22;10715;48.546;9.896;2023-04-15T12:49:29;9.70;99.90
21115;DHT22;10715;48.546;9.896;2023-04-15T12:51:56;9.80;99.90
21115;DHT22;10715;48.546;9.896;2023-04-15T12:54:24;9.80;99.90
21115;DHT22;10715;48.546;9.896;2023-04-15T12:56:51;9.80;99.90
21115;DHT22;10715;48.546;9.896;2023-04-15T12:59:17;9.80;99.90
21115;DHT22;10715;48.546;9.896;2023-04-15T13:01:43;9.80;99.90
21115;DHT22;10715;48.546;9.896;2023-04-15T13:04:09;9.80;99.90
21115;DHT22;10715;48.546;9.896;2023-04-15T13:06:35;9.80;99.90
21115;DHT22;10715;48.546;9.896;2023-04-15T13:09:01;9.80;99.90
21115;DHT22;10715;48.546;9.896;2023-04-15T13:11:28;9.90;99.90
21115;DHT22;10715;48.546;9.896;2023-04-15T13:14:00;9.80;99.90
21115;DHT22;10715;48.546;9.896;2023-04-15T13:16:26;9.80;99.90
21115;DHT22;10715;48.546;9.896;2023-04-15T13:18:52;9.80;99.90
21115;DHT22;10715;48.546;9.896;2023-04-15T13:21:18;9.80;99.90
21115;DHT22;10715;48.546;9.896;2023-04-15T13:23:44;9.70;99.90
21115;DHT22;10715;48.546;9.896;2023-04-15T13:26:10;9.70;99.90
21115;DHT22;10715;48.546;9.896;2023-04-15T13:28:36;9.70;99.90
21115;DHT22;10715;48.546;9.896;2023-04-15T13:31:02;9.60;99.90
21115;DHT22;10715;48.546;9.896;2023-04-15T13:33:28;9.50;99.90
21115;DHT22;10715;48.546;9.896;2023-04-15T13:35:53;9.50;99.90
21115;DHT22;10715;48.546;9.896;2023-04-15T13:38:19;9.50;99.90
21115;DHT22;10715;48.546;9.896;2023-04-15T13:40:45;9.40;99.90
21115;DHT22;10715;48.546;9.896;2023-04-15T13:43:11;9.30;99.90
21115;DHT22;10715;48.546;9.896;2023-04-15T13:45:37;9.30;99.90
21115;DHT22;10715;48.546;9.896;2023-04-15T13:48:03;9.20;99.90
21115;DHT22;10715;48.546;9.896;2023-04-15T13:50:28;9.20;99.90
21115;DHT22;10715;48.546;9.896;2023-04-15T13:52:54;9.10;99.90
21115;DHT22;10715;48.546;9.896;2023-04-15T13:55:20;9.00;99.90
21115;DHT22;10715;48.546;9.896;2023-04-15T13:57:46;8.90;99.90
21115;DHT22;10715;48.546;9.896;2023-04-15T14:00:12;8.80;99.90
21115;DHT22;10715;48.546;9.896;2023-04-15T14:02:39;8.70;99.90
21115;DHT22;10715;48.546;9.896;2023-04-15T14:05:06;8.60;99.90
21115;DHT22;10715;48.546;9.896;2023-04-15T14:07:32;8.50;99.90
21115;DHT22;10715;48.546;9.896;2023-04-15T14:09:58;8.40;99.90
21115;DHT22;10715;48.546;9.896;2023-04-15T14:12:24;8.30;99.90
21115;DHT22;10715;48.546;9.896;2023-04-15T14:14:49;8.20;99.90
21115;DHT22;10715;48.546;9.896;2023-04-15T14:17:15;8.10;99.90
21115;DHT22;10715;48.546;9.896;2023-04-15T14:19:41;8.00;99.90
21115;DHT22;10715;48.546;9.896;2023-04-15T14:22:07;8.00;99.90
21115;DHT22;10715;48.546;9.896;2023-04-15T14:24:32;7.90;99.90
21115;DHT22;10715;48.546;9.896;2023-04-15T14:26:58;7.80;99.90
21115;DHT22;10715;48.546;9.896;2023-04-15T14:29:24;7.70;99.90
21115;DHT22;10715;48.546;9.896;2023-04-15T14:31:50;7.70;99.90
21115;DHT22;10715;48.546;9.896;2023-04-15T14:34:16;7.60;99.90
21115;DHT22;10715;48.546;9.896;2023-04-15T14:36:42;7.60;99.90
21115;DHT22;10715;48.546;9.896;2023-04-15T14:39:09;7.60;99.90
21115;DHT22;10715;48.546;9.896;2023-04-15T14:41:35;7.50;99.90
21115;DHT22;10715;48.546;9.896;2023-04-15T14:44:01;7.50;99.90
21115;DHT22;10715;48.546;9.896;2023-04-15T14:46:26;7.50;99.90
21115;DHT22;10715;48.546;9.896;2023-04-15T14:48:52;7.50;99.90
21115;DHT22;10715;48.546;9.896;2023-04-15T14:51:18;7.50;99.90
21115;DHT22;10715;48.546;9.896;2023-04-15T14:53:44;7.40;99.90
21115;DHT22;10715;48.546;9.896;2023-04-15T14:56:10;7.40;99.90
21115;DHT22;10715;48.546;9.896;2023-04-15T14:58:36;7.40;99.90
21115;DHT22;10715;48.546;9.896;2023-04-15T15:01:05;7.40;99.90
21115;DHT22;10715;48.546;9.896;2023-04-15T15:03:31;7.40;99.90
21115;DHT22;10715;48.546;9.896;2023-04-15T15:05:57;7.50;99.90
21115;DHT22;10715;48.546;9.896;2023-04-15T15:08:23;7.50;99.90
21115;DHT22;10715;48.546;9.896;2023-04-15T15:10:49;7.50;99.90
21115;DHT22;10715;48.546;9.896;2023-04-15T15:13:15;7.50;99.90
21115;DHT22;10715;48.546;9.896;2023-04-15T15:15:41;7.50;99.90
21115;DHT22;10715;48.546;9.896;2023-04-15T15:18:07;7.50;99.90
21115;DHT22;10715;48.546;9.896;2023-04-15T15:20:33;7.60;99.90
21115;DHT22;10715;48.546;9.896;2023-04-15T15:23:00;7.60;99.90
21115;DHT22;10715;48.546;9.896;2023-04-15T15:25:26;7.60;99.90
21115;DHT22;10715;48.546;9.896;2023-04-15T15:27:52;7.70;99.90
21115;DHT22;10715;48.546;9.896;2023-04-15T15:30:18;7.70;99.90
21115;DHT22;10715;48.546;9.896;2023-04-15T15:32:43;7.70;99.90
21115;DHT22;10715;48.546;9.896;2023-04-15T15:35:09;7.80;99.90
21115;DHT22;10715;48.546;9.896;2023-04-15T15:37:35;7.80;99.90
21115;DHT22;10715;48.546;9.896;2023-04-15T15:40:05;7.80;99.90
21115;DHT22;10715;48.546;9.896;2023-04-15T15:42:31;7.80;99.90
21115;DHT22;10715;48.546;9.896;2023-04-15T15:44:57;7.80;99.90
21115;DHT22;10715;48.546;9.896;2023-04-15T15:47:22;7.80;99.90
21115;DHT22;10715;48.546;9.896;2023-04-15T15:49:48;7.80;99.90
21115;DHT22;10715;48.546;9.896;2023-04-15T15:52:14;7.90;99.90
21115;DHT22;10715;48.546;9.896;2023-04-15T15:54:40;7.90;99.90
21115;DHT22;10715;48.546;9.896;2023-04-15T15:57:06;7.90;99.90
21115;DHT22;10715;48.546;9.896;2023-04-15T15:59:32;7.90;99.90